createdAt,value
2022-10-17T00:00:53.715Z,14.35
2022-10-17T00:03:55.835Z,14.70
2022-10-17T00:06:58.000Z,14.13
2022-10-17T00:10:00.333Z,13.60
2022-10-17T00:13:02.555Z,14.10
2022-10-17T00:16:05.249Z,14.43
2022-10-17T00:19:07.568Z,14.00
2022-10-17T00:22:09.769Z,13.30
2022-10-17T00:25:12.374Z,12.73
2022-10-17T00:28:15.715Z,13.75
2022-10-17T00:31:19.057Z,13.68
2022-10-17T00:34:21.355Z,13.02
2022-10-17T00:37:23.606Z,13.73
2022-10-17T00:40:25.764Z,13.15
2022-10-17T00:43:29.644Z,13.02
2022-10-17T00:46:33.850Z,12.15
2022-10-17T00:49:36.601Z,12.05
2022-10-17T00:52:39.122Z,11.47
2022-10-17T00:55:59.357Z,12.02
2022-10-17T00:59:02.081Z,11.90
2022-10-17T01:02:05.824Z,11.73
2022-10-17T01:05:08.525Z,11.15
2022-10-17T01:08:11.216Z,12.30
2022-10-17T01:11:19.120Z,11.70
2022-10-17T01:14:53.697Z,11.45
2022-10-17T01:18:11.257Z,11.63
2022-10-17T01:21:16.729Z,11.45
2022-10-17T01:24:33.469Z,10.70
2022-10-17T01:27:36.883Z,11.27
2022-10-17T01:30:55.235Z,11.05
2022-10-17T01:34:09.668Z,9.80
2022-10-17T01:37:12.253Z,10.18
2022-10-17T01:40:21.402Z,10.80
2022-10-17T01:43:34.156Z,10.30
2022-10-17T01:46:38.081Z,10.05
2022-10-17T01:49:43.136Z,11.05
2022-10-17T01:52:48.046Z,9.70
2022-10-17T01:55:52.590Z,10.43
2022-10-17T01:59:01.087Z,11.18
2022-10-17T02:02:04.891Z,11.05
2022-10-17T02:05:07.707Z,11.43
2022-10-17T02:08:10.233Z,10.82
2022-10-17T02:11:23.222Z,9.87
2022-10-17T02:14:31.655Z,9.48
2022-10-17T02:17:52.767Z,10.48
2022-10-17T02:20:58.828Z,10.15
2022-10-17T02:24:07.121Z,10.00
2022-10-17T02:27:15.226Z,10.20
2022-10-17T02:30:23.594Z,10.13
2022-10-17T02:33:25.739Z,10.25
2022-10-17T02:36:38.343Z,9.35
2022-10-17T02:39:41.135Z,9.80
2022-10-17T02:42:45.020Z,9.47
2022-10-17T02:45:48.109Z,9.40
2022-10-17T02:49:22.739Z,9.88
2022-10-17T02:52:28.412Z,9.38
2022-10-17T02:55:40.993Z,9.65
2022-10-17T02:58:46.180Z,9.07
2022-10-17T03:01:51.480Z,9.75
2022-10-17T03:04:56.072Z,9.95
2022-10-17T03:07:58.247Z,9.38
2022-10-17T03:11:00.491Z,9.68
2022-10-17T03:14:03.545Z,9.33
2022-10-17T03:17:05.812Z,10.00
2022-10-17T03:20:08.096Z,9.40
2022-10-17T03:23:10.326Z,9.48
2022-10-17T03:26:12.797Z,9.93
2022-10-17T03:29:15.072Z,8.87
2022-10-17T03:32:17.832Z,9.73
2022-10-17T03:35:20.012Z,10.23
2022-10-17T03:38:25.219Z,9.45
2022-10-17T03:41:27.915Z,9.82
2022-10-17T03:44:30.075Z,10.03
2022-10-17T03:47:32.507Z,9.18
2022-10-17T03:50:35.068Z,10.88
2022-10-17T03:53:38.184Z,9.13
2022-10-17T03:56:41.169Z,9.73
2022-10-17T03:59:47.995Z,9.80
2022-10-17T04:02:53.882Z,9.15
2022-10-17T04:05:58.472Z,9.27
2022-10-17T04:09:00.884Z,9.00
2022-10-17T04:12:11.523Z,9.48
2022-10-17T04:15:14.164Z,9.30
2022-10-17T04:18:16.718Z,9.75
2022-10-17T04:21:19.374Z,8.88
2022-10-17T04:24:21.835Z,10.43
2022-10-17T04:27:24.028Z,9.95
2022-10-17T04:30:26.327Z,9.70
2022-10-17T04:33:28.523Z,11.65
2022-10-17T04:36:30.760Z,11.90
2022-10-17T04:39:33.029Z,11.75
2022-10-17T04:42:35.292Z,11.27
2022-10-17T04:45:37.776Z,11.17
2022-10-17T04:48:41.383Z,10.88
2022-10-17T04:51:43.881Z,11.27
2022-10-17T04:54:54.147Z,11.27
2022-10-17T04:57:56.992Z,12.02
2022-10-17T05:00:59.595Z,11.37
2022-10-17T05:04:04.574Z,11.52
2022-10-17T05:07:06.764Z,11.73
2022-10-17T05:10:20.706Z,11.13
2022-10-17T05:13:24.883Z,11.90
2022-10-17T05:16:31.149Z,11.07
2022-10-17T05:19:33.504Z,11.98
2022-10-17T05:22:38.369Z,11.13
2022-10-17T05:25:43.850Z,11.43
2022-10-17T05:28:47.844Z,11.73
2022-10-17T05:31:51.949Z,12.23
2022-10-17T05:34:55.069Z,12.43
2022-10-17T05:38:00.647Z,11.77
2022-10-17T05:41:06.341Z,12.18
2022-10-17T05:44:11.676Z,13.25
2022-10-17T05:47:22.401Z,13.60
2022-10-17T05:50:26.630Z,12.45
2022-10-17T05:53:45.099Z,13.10
2022-10-17T05:57:00.088Z,13.20
2022-10-17T06:00:12.857Z,13.40
2022-10-17T06:03:31.401Z,14.67
2022-10-17T06:06:58.252Z,15.20
2022-10-17T06:10:03.926Z,18.55
2022-10-17T06:13:08.878Z,18.95
2022-10-17T06:16:19.125Z,18.08
2022-10-17T06:19:21.381Z,17.60
2022-10-17T06:22:25.825Z,16.13
2022-10-17T06:25:32.445Z,15.80
2022-10-17T06:28:35.095Z,15.30
2022-10-17T06:31:38.770Z,15.48
2022-10-17T06:34:42.494Z,16.07
2022-10-17T06:37:51.654Z,15.68
2022-10-17T06:45:06.250Z,14.57
2022-10-17T06:48:23.325Z,14.57
2022-10-17T06:51:36.625Z,13.63
2022-10-17T06:54:43.630Z,14.18
2022-10-17T06:58:07.258Z,14.90
2022-10-17T07:01:19.035Z,13.88
2022-10-17T07:04:23.393Z,14.18
2022-10-17T07:11:19.471Z,13.02
2022-10-17T07:18:55.804Z,10.00
2022-10-17T07:21:58.692Z,10.10
2022-10-17T07:25:02.152Z,9.70
2022-10-17T07:28:10.881Z,9.98
2022-10-17T07:31:16.229Z,9.85
2022-10-17T07:34:19.373Z,9.40
2022-10-17T07:42:01.589Z,8.70
2022-10-17T07:45:19.274Z,8.80
2022-10-17T07:48:28.498Z,8.32
2022-10-17T07:51:36.453Z,8.18
2022-10-17T07:54:42.809Z,7.80
2022-10-17T07:57:50.157Z,8.00
2022-10-17T08:00:53.312Z,8.65
2022-10-17T08:03:55.708Z,7.82
2022-10-17T08:07:11.332Z,8.02
2022-10-17T08:10:27.859Z,7.55
2022-10-17T08:13:30.276Z,8.10
2022-10-17T08:16:32.514Z,7.80
2022-10-17T08:19:34.716Z,7.97
2022-10-17T08:22:37.030Z,8.25
2022-10-17T08:25:41.988Z,7.45
2022-10-17T08:28:50.968Z,7.13
2022-10-17T08:31:58.679Z,7.32
2022-10-17T08:35:08.258Z,7.07
2022-10-17T08:38:13.287Z,7.13
2022-10-17T08:41:36.206Z,6.82
2022-10-17T08:45:04.218Z,6.90
2022-10-17T08:48:28.748Z,7.03
2022-10-17T08:52:15.512Z,7.63
2022-10-17T08:55:53.845Z,7.05
2022-10-17T08:58:56.685Z,6.50
2022-10-17T09:02:35.010Z,5.57
2022-10-17T09:05:43.628Z,5.82
2022-10-17T09:09:05.089Z,5.75
2022-10-17T09:12:16.741Z,6.15
2022-10-17T09:15:19.999Z,6.90
2022-10-17T09:18:31.655Z,6.40
2022-10-17T09:21:42.412Z,6.00
2022-10-17T09:25:07.064Z,6.05
2022-10-17T09:28:28.337Z,5.38
2022-10-17T09:31:42.680Z,5.60
2022-10-17T09:34:46.148Z,5.77
2022-10-17T09:37:51.239Z,5.38
2022-10-17T09:40:57.858Z,5.45
2022-10-17T09:44:16.957Z,5.40
2022-10-17T09:47:24.391Z,5.28
2022-10-17T09:50:31.479Z,5.23
2022-10-17T09:53:40.720Z,5.32
2022-10-17T09:57:13.725Z,5.30
2022-10-17T10:00:21.122Z,6.05
2022-10-17T10:03:29.652Z,5.60
2022-10-17T10:06:32.620Z,5.43
2022-10-17T10:09:39.387Z,5.07
2022-10-17T10:12:43.856Z,5.60
2022-10-17T10:15:47.413Z,5.40
2022-10-17T10:18:51.042Z,5.32
2022-10-17T10:21:57.807Z,5.37
2022-10-17T10:25:17.794Z,5.65
2022-10-17T10:28:20.534Z,5.32
2022-10-17T10:31:31.309Z,5.72
2022-10-17T10:34:47.517Z,5.20
2022-10-17T10:37:56.582Z,5.33
2022-10-17T10:41:09.285Z,4.75
2022-10-17T10:44:14.490Z,5.05
2022-10-17T10:47:17.149Z,4.90
2022-10-17T10:50:28.115Z,5.32
2022-10-17T10:54:19.530Z,5.43
2022-10-17T10:57:33.494Z,5.07
2022-10-17T11:05:27.898Z,5.20
2022-10-17T11:08:42.612Z,5.18
2022-10-17T11:12:22.045Z,4.83
2022-10-17T11:15:43.809Z,5.30
2022-10-17T11:19:24.785Z,4.70
2022-10-17T11:22:31.575Z,4.95
2022-10-17T11:25:55.769Z,4.68
2022-10-17T11:29:41.720Z,4.70
2022-10-17T11:32:51.514Z,4.60
2022-10-17T11:36:08.918Z,4.10
2022-10-17T11:39:14.113Z,4.43
2022-10-17T11:42:40.730Z,4.40
2022-10-17T11:45:50.161Z,3.93
2022-10-17T11:49:04.269Z,4.00
2022-10-17T11:52:09.267Z,4.03
2022-10-17T11:55:17.192Z,4.18
2022-10-17T11:58:30.712Z,4.60
2022-10-17T12:01:44.950Z,4.27
2022-10-17T12:04:50.858Z,3.88
2022-10-17T12:08:02.017Z,3.60
2022-10-17T12:11:20.206Z,3.63
2022-10-17T12:14:42.797Z,4.50
2022-10-17T12:17:45.849Z,3.80
2022-10-17T12:20:58.029Z,3.70
2022-10-17T12:24:00.362Z,3.53
2022-10-17T12:27:21.503Z,3.60
2022-10-17T12:30:27.647Z,3.22
2022-10-17T12:33:34.803Z,3.50
2022-10-17T12:36:38.012Z,3.00
2022-10-17T12:39:40.295Z,3.25
2022-10-17T12:42:47.875Z,3.30
2022-10-17T12:46:01.582Z,3.08
2022-10-17T12:49:04.845Z,3.10
2022-10-17T12:52:07.254Z,3.42
2022-10-17T12:55:20.401Z,3.22
2022-10-17T12:58:25.692Z,3.30
2022-10-17T13:01:29.611Z,3.38
2022-10-17T13:04:32.022Z,3.50
2022-10-17T13:07:36.852Z,3.50
2022-10-17T13:10:41.828Z,3.50
2022-10-17T13:13:48.811Z,3.50
2022-10-17T13:16:51.529Z,3.47
2022-10-17T13:19:54.447Z,3.07
2022-10-17T13:22:57.338Z,3.22
2022-10-17T13:26:04.529Z,3.28
2022-10-17T13:32:17.898Z,3.20
2022-10-17T13:35:41.910Z,3.07
2022-10-17T13:38:50.592Z,3.05
2022-10-17T13:41:54.374Z,3.00
2022-10-17T13:44:57.893Z,3.45
2022-10-17T13:48:02.152Z,3.47
2022-10-17T13:51:07.898Z,4.00
2022-10-17T13:54:43.567Z,3.60
2022-10-17T13:57:45.917Z,3.80
2022-10-17T14:00:52.480Z,3.67
2022-10-17T14:04:07.790Z,3.40
2022-10-17T14:08:09.941Z,3.87
2022-10-17T14:11:19.786Z,3.47
2022-10-17T14:14:23.669Z,3.55
2022-10-17T14:17:27.225Z,3.42
2022-10-17T14:23:53.519Z,3.90
2022-10-17T14:26:58.935Z,3.92
2022-10-17T14:30:03.677Z,3.53
2022-10-17T14:33:07.805Z,3.28
2022-10-17T14:36:10.031Z,3.85
2022-10-17T14:39:19.493Z,3.20
2022-10-17T14:42:22.558Z,3.50
2022-10-17T14:45:35.666Z,3.28
2022-10-17T14:48:37.891Z,3.40
2022-10-17T14:51:50.615Z,3.33
2022-10-17T14:55:15.486Z,3.77
2022-10-17T14:58:27.993Z,3.67
2022-10-17T15:01:30.174Z,3.38
2022-10-17T15:04:32.400Z,4.03
2022-10-17T15:07:34.613Z,3.65
2022-10-17T15:10:37.334Z,4.03
2022-10-17T15:13:44.667Z,5.15
2022-10-17T15:16:48.457Z,4.85
2022-10-17T15:19:50.909Z,4.70
2022-10-17T15:22:53.811Z,4.35
2022-10-17T15:25:56.822Z,5.07
2022-10-17T15:28:59.333Z,4.75
2022-10-17T15:32:01.600Z,4.57
2022-10-17T15:35:03.996Z,4.38
2022-10-17T15:38:07.095Z,4.30
2022-10-17T15:41:10.768Z,4.60
2022-10-17T15:44:12.929Z,4.80
2022-10-17T15:47:19.600Z,5.53
2022-10-17T15:50:22.186Z,5.43
2022-10-17T15:53:24.742Z,6.50
2022-10-17T15:56:31.565Z,7.10
2022-10-17T15:59:35.072Z,8.63
2022-10-17T16:02:37.248Z,10.60
2022-10-17T16:05:39.508Z,10.70
2022-10-17T16:08:41.786Z,11.82
2022-10-17T16:11:44.650Z,12.70
2022-10-17T16:14:46.899Z,13.88
2022-10-17T16:17:49.825Z,12.30
2022-10-17T16:20:52.064Z,12.05
2022-10-17T16:23:54.411Z,12.75
2022-10-17T16:26:56.705Z,12.90
2022-10-17T16:29:58.925Z,11.70
2022-10-17T16:33:01.116Z,12.48
2022-10-17T16:36:03.394Z,12.43
2022-10-17T16:39:05.824Z,12.45
2022-10-17T16:42:08.063Z,12.00
2022-10-17T16:45:15.312Z,12.32
2022-10-17T16:48:17.805Z,12.40
2022-10-17T16:51:20.970Z,11.18
2022-10-17T16:54:23.361Z,11.60
2022-10-17T16:57:25.693Z,10.53
2022-10-17T17:00:28.199Z,10.30
2022-10-17T17:03:30.384Z,10.32
2022-10-17T17:06:32.936Z,10.80
2022-10-17T17:09:35.158Z,10.82
2022-10-17T17:12:37.434Z,9.63
2022-10-17T17:15:39.815Z,10.68
2022-10-17T17:18:42.530Z,9.68
2022-10-17T17:21:50.732Z,9.63
2022-10-17T17:24:52.991Z,9.00
2022-10-17T17:27:55.289Z,9.97
2022-10-17T17:30:57.529Z,9.50
2022-10-17T17:33:59.909Z,9.85
2022-10-17T17:37:02.076Z,10.07
2022-10-17T17:40:05.979Z,10.57
2022-10-17T17:43:08.370Z,9.80
2022-10-17T17:46:10.741Z,9.88
2022-10-17T17:49:12.922Z,9.65
2022-10-17T17:52:15.128Z,9.88
2022-10-17T17:55:17.392Z,9.55
2022-10-17T17:58:19.576Z,10.47
2022-10-17T18:01:23.546Z,10.02
2022-10-17T18:04:25.757Z,10.55
2022-10-17T18:07:28.071Z,10.82
2022-10-17T18:10:30.332Z,10.48
2022-10-17T18:13:32.560Z,11.70
2022-10-17T18:16:35.792Z,11.23
2022-10-17T18:19:37.954Z,10.63
2022-10-17T18:22:40.642Z,11.60
2022-10-17T18:25:43.411Z,10.75
2022-10-17T18:28:45.655Z,11.23
2022-10-17T18:31:48.119Z,11.98
2022-10-17T18:34:50.312Z,11.68
2022-10-17T18:37:56.978Z,12.60
2022-10-17T18:41:25.726Z,12.38
2022-10-17T18:44:28.007Z,13.00
2022-10-17T18:47:30.372Z,12.25
2022-10-17T18:50:32.750Z,13.15
2022-10-17T18:53:35.195Z,14.02
2022-10-17T18:56:37.389Z,15.65
2022-10-17T18:59:39.662Z,15.00
2022-10-17T19:02:42.227Z,15.02
2022-10-17T19:05:47.677Z,14.90
2022-10-17T19:08:49.856Z,15.35
2022-10-17T19:11:52.081Z,15.75
2022-10-17T19:14:56.205Z,15.77
2022-10-17T19:17:58.486Z,15.75
2022-10-17T19:21:04.721Z,17.63
2022-10-17T19:24:08.082Z,15.27
2022-10-17T19:27:12.204Z,16.52
2022-10-17T19:30:14.401Z,16.60
2022-10-17T19:33:16.729Z,15.02
2022-10-17T19:36:19.714Z,15.65
2022-10-17T19:39:23.955Z,15.48
2022-10-17T19:42:26.181Z,16.70
2022-10-17T19:45:28.361Z,16.23
2022-10-17T19:48:34.764Z,16.20
2022-10-17T19:51:37.025Z,15.57
2022-10-17T19:54:40.765Z,15.48
2022-10-17T19:57:42.962Z,15.48
2022-10-17T20:00:52.721Z,15.77
2022-10-17T20:03:55.529Z,16.13
2022-10-17T20:06:59.945Z,16.40
2022-10-17T20:10:02.201Z,15.20
2022-10-17T20:13:04.422Z,16.50
2022-10-17T20:16:07.775Z,14.97
2022-10-17T20:19:11.439Z,16.02
2022-10-17T20:22:13.636Z,16.55
2022-10-17T20:25:16.136Z,15.90
2022-10-17T20:28:18.319Z,13.52
2022-10-17T20:31:20.659Z,15.07
2022-10-17T20:34:23.094Z,15.35
2022-10-17T20:37:25.412Z,15.98
2022-10-17T20:40:35.013Z,14.70
2022-10-17T20:43:37.962Z,14.73
2022-10-17T20:46:48.504Z,15.50
2022-10-17T20:49:59.774Z,14.45
2022-10-17T20:53:31.371Z,15.63
2022-10-17T20:56:25.160Z,14.75
2022-10-17T20:59:28.214Z,14.60
2022-10-17T21:02:30.670Z,14.80
2022-10-17T21:05:37.389Z,14.88
2022-10-17T21:08:39.625Z,14.77
2022-10-17T21:11:43.186Z,15.68
2022-10-17T21:14:45.449Z,13.88
2022-10-17T21:17:47.578Z,14.80
2022-10-17T21:20:49.961Z,14.52
2022-10-17T21:23:53.378Z,14.32
2022-10-17T21:26:57.108Z,14.10
2022-10-17T21:29:59.290Z,14.48
2022-10-17T21:33:01.475Z,13.40
2022-10-17T21:36:04.459Z,13.60
2022-10-17T21:42:08.975Z,13.45
2022-10-17T21:45:15.612Z,13.65
2022-10-17T21:48:18.462Z,13.13
2022-10-17T21:51:22.034Z,12.32
2022-10-17T21:54:24.580Z,13.00
2022-10-17T21:57:26.743Z,13.35
2022-10-17T22:00:28.958Z,12.95
2022-10-17T22:03:34.763Z,12.67
2022-10-17T22:06:40.225Z,12.07
2022-10-17T22:09:43.128Z,12.93
2022-10-17T22:12:45.352Z,12.98
2022-10-17T22:15:47.555Z,12.45
2022-10-17T22:18:50.204Z,11.83
2022-10-17T22:21:52.867Z,11.80
2022-10-17T22:24:55.451Z,11.57
2022-10-17T22:27:57.606Z,12.38
2022-10-17T22:30:59.803Z,12.05
2022-10-17T22:34:02.451Z,12.20
2022-10-17T22:37:05.800Z,11.05
2022-10-17T22:40:08.408Z,11.80
2022-10-17T22:43:10.738Z,11.95
2022-10-17T22:46:13.891Z,12.00
2022-10-17T22:49:16.038Z,12.60
2022-10-17T22:52:18.219Z,11.95
2022-10-17T22:55:20.840Z,13.73
2022-10-17T22:58:23.409Z,12.95
2022-10-17T23:01:25.882Z,13.85
2022-10-17T23:04:28.069Z,12.67
2022-10-17T23:07:30.240Z,14.90
2022-10-17T23:10:32.459Z,15.00
2022-10-17T23:13:34.733Z,13.65
2022-10-17T23:16:36.908Z,13.75
2022-10-17T23:19:39.465Z,14.53
2022-10-17T23:22:41.621Z,13.48
2022-10-17T23:25:44.039Z,13.30
2022-10-17T23:28:46.300Z,12.05
2022-10-17T23:31:48.665Z,12.45
2022-10-17T23:34:50.838Z,12.67
2022-10-17T23:37:53.030Z,12.40
2022-10-17T23:40:55.260Z,13.13
2022-10-17T23:43:57.670Z,12.35
2022-10-17T23:46:59.902Z,12.90
2022-10-17T23:50:02.169Z,12.17
2022-10-17T23:53:04.614Z,11.70
2022-10-17T23:56:07.835Z,11.65
2022-10-17T23:59:09.955Z,12.23
